Terminal Aerodrome Forecast
Issued by NWS

Home | Current Version | Previous Version | Text Only | Print | Product List | Glossary On
Versions: 1 2 3 4 5 6 7 8 9 10 11 12 13 14 15 16 17 18 19 20 21 22 23 24
917
FTUS46 KSEW 091120
TAFOLM
TAF
KOLM 091120Z 0912/1012 00000KT 2SM BR BKN002
      TEMPO 0912/0916 1/2SM FG VV001
     FM091700 VRB04KT P6SM BKN250
     FM101000 00000KT 1/2SM FG VV002=

USA.gov is the U.S. government's official web portal to all federal, state and local government web resources and services.